HETR

El Tor Airport

Egypt
METAR HETR 140200Z 36006KT CAVOK 13/09 Q1021
Observed Flight Rules
Dec-14 @ 02:00 UTC (an hour ago) Visual Flight Rules
Wind Visibility Clouds
360° at 6 knots 10,000+ meters
  • Clear skies
Temperatures Readings
Current 13°C / 55°F
Dewpoint 9°C / 48°F
Humidity 77%
Altimeter 30.15" Hg
Pressure 1021 hPa
Elevation 35
METAR HETR 140200Z 36006KT CAVOK 13/09 Q1021
Observed Flight Rules
Dec-14 @ 02:00 UTC
(an hour ago)
VFR
Wind Visibility
360° at 6 knots 10,000+ meters
Clouds
  • Clear skies
Temperature Dewpoint
13°C / 55°F 9°C / 48°F
Humidity Altimeter Pressure
77% 30.15" Hg 1021 hPa